Time;durP1;ratioP1;P1;durP2;ratioP2;P2;SDS_P1;SDS_P2;PMS_P1;PMS_P2;Temp;Humidity;BMP_temperature;BMP_pressure;BME280_temperature;BME280_humidity;BME280_pressure;Samples;Min_cycle;Max_cycle;Signal;HPM_P1;HPM_P2
2022/07/13 00:02:15;;;;;;;3.58;1.58;;;21.50;75.80;;;;;;6244287;22;20031;-66
2022/07/13 00:04:40;;;;;;;2.10;1.48;;;21.50;75.20;;;;;;6244494;22;20047;-66
2022/07/13 00:07:06;;;;;;;2.05;1.60;;;21.50;75.50;;;;;;6244614;22;20000;-66
2022/07/13 00:09:32;;;;;;;3.90;1.48;;;21.50;75.30;;;;;;6244557;22;20004;-65
2022/07/13 00:11:58;;;;;;;3.05;1.40;;;21.40;75.60;;;;;;6244625;22;20004;-66
2022/07/13 00:14:23;;;;;;;5.00;1.70;;;21.30;76.00;;;;;;6244813;22;20386;-65
2022/07/13 00:16:49;;;;;;;4.47;1.75;;;21.30;77.10;;;;;;6246490;22;20062;-66
2022/07/13 00:19:15;;;;;;;2.65;1.60;;;21.20;77.70;;;;;;6245884;22;20077;-66
2022/07/13 00:21:41;;;;;;;5.88;1.70;;;21.20;78.00;;;;;;6246186;22;20000;-66
2022/07/13 00:24:07;;;;;;;2.55;1.50;;;21.10;78.40;;;;;;6246744;22;20019;-66
2022/07/13 00:26:32;;;;;;;7.70;2.20;;;21.10;78.60;;;;;;6247469;22;20441;-66
2022/07/13 00:28:58;;;;;;;2.33;1.35;;;21.00;77.60;;;;;;6246569;22;20004;-66
2022/07/13 00:31:24;;;;;;;5.97;1.50;;;21.00;77.30;;;;;;6245847;22;20000;-66
2022/07/13 00:33:49;;;;;;;6.60;1.70;;;21.00;77.90;;;;;;6246263;22;20243;-66
2022/07/13 00:36:15;;;;;;;4.25;1.55;;;21.00;77.30;;;;;;6246164;22;20331;-66
2022/07/13 00:38:41;;;;;;;2.13;1.30;;;21.00;76.90;;;;;;6246911;22;20024;-66
2022/07/13 00:41:06;;;;;;;2.03;1.35;;;21.00;76.90;;;;;;6246124;22;20422;-66
2022/07/13 00:43:32;;;;;;;3.72;1.60;;;21.00;77.30;;;;;;6246202;22;20073;-66
2022/07/13 00:45:59;;;;;;;7.70;1.70;;;21.00;77.00;;;;;;6245751;22;20008;-66
2022/07/13 00:48:26;;;;;;;4.35;1.60;;;21.00;78.10;;;;;;6245913;22;20004;-65
2022/07/13 00:50:51;;;;;;;3.13;1.58;;;20.90;78.50;;;;;;6246025;22;19997;-66
2022/07/13 00:53:18;;;;;;;1.80;1.48;;;20.90;78.40;;;;;;6246538;22;20007;-66
2022/07/13 00:55:46;;;;;;;3.55;1.50;;;20.90;79.20;;;;;;6245964;22;20064;-66
2022/07/13 00:58:11;;;;;;;3.33;1.60;;;20.90;78.50;;;;;;6244290;22;20004;-66
2022/07/13 01:00:37;;;;;;;2.92;1.42;;;20.90;78.00;;;;;;6243594;22;20016;-66
2022/07/13 01:03:03;;;;;;;2.03;1.42;;;20.90;78.40;;;;;;6242233;22;20004;-66
2022/07/13 01:05:29;;;;;;;4.38;1.65;;;20.90;78.10;;;;;;6244306;22;20012;-66
2022/07/13 01:07:55;;;;;;;2.13;1.40;;;20.90;78.40;;;;;;6246273;22;20135;-66
2022/07/13 01:10:22;;;;;;;2.92;1.42;;;20.80;77.80;;;;;;6244397;22;20011;-66
2022/07/13 01:12:47;;;;;;;4.38;1.85;;;20.80;77.70;;;;;;6245276;22;20010;-66
2022/07/13 01:15:13;;;;;;;3.53;1.55;;;20.80;77.50;;;;;;6245336;22;20398;-66
2022/07/13 01:17:39;;;;;;;3.10;1.40;;;20.70;77.40;;;;;;6245535;22;20020;-66
2022/07/13 01:20:06;;;;;;;2.90;1.20;;;20.70;77.70;;;;;;6244984;22;19996;-66
2022/07/13 01:22:41;;;;;;;4.13;1.35;;;20.80;77.50;;;;;;6245046;22;20004;-65
2022/07/13 01:25:08;;;;;;;2.80;1.15;;;20.80;76.90;;;;;;6245453;22;20419;-66
2022/07/13 01:27:36;;;;;;;2.90;1.40;;;20.80;76.70;;;;;;6244965;22;20000;-64
2022/07/13 01:30:04;;;;;;;3.42;1.20;;;20.80;76.80;;;;;;6244509;22;20011;-66
2022/07/13 01:32:45;;;;;;;2.55;1.40;;;20.80;77.20;;;;;;6245624;22;20004;-66
2022/07/13 01:35:11;;;;;;;3.58;1.50;;;20.80;76.80;;;;;;6245160;22;20000;-66
2022/07/13 01:37:38;;;;;;;8.07;2.08;;;20.80;77.10;;;;;;6245526;22;20365;-66
2022/07/13 01:40:05;;;;;;;4.50;1.42;;;20.80;77.60;;;;;;6245829;22;20082;-66
2022/07/13 01:42:30;;;;;;;1.88;1.30;;;20.80;77.40;;;;;;6244792;22;20063;-65
2022/07/13 01:44:57;;;;;;;5.50;1.45;;;20.70;77.10;;;;;;6245215;22;20036;-66
2022/07/13 01:47:23;;;;;;;6.30;1.60;;;20.80;77.60;;;;;;6244875;22;20001;-66
2022/07/13 01:49:48;;;;;;;2.80;1.30;;;20.70;77.80;;;;;;6244769;22;20053;-66
2022/07/13 01:52:14;;;;;;;3.20;1.33;;;20.70;78.10;;;;;;6244514;22;20000;-66
2022/07/13 01:54:40;;;;;;;1.52;1.23;;;20.70;77.70;;;;;;6244777;22;20463;-66
2022/07/13 01:57:06;;;;;;;2.70;1.13;;;20.70;77.30;;;;;;6244644;22;20000;-66
2022/07/13 01:59:31;;;;;;;2.53;1.30;;;20.70;77.50;;;;;;6244452;22;20414;-66
2022/07/13 02:01:57;;;;;;;3.65;2.45;;;20.70;77.50;;;;;;6245092;22;20008;-66
2022/07/13 02:04:23;;;;;;;5.90;1.90;;;20.70;77.70;;;;;;6244915;22;20011;-66
2022/07/13 02:06:50;;;;;;;3.58;1.50;;;20.70;78.60;;;;;;6245211;22;20443;-66
2022/07/13 02:09:15;;;;;;;2.75;1.20;;;20.60;78.10;;;;;;6244819;22;20411;-64
2022/07/13 02:11:41;;;;;;;3.40;1.20;;;20.60;78.20;;;;;;6245142;22;20000;-66
2022/07/13 02:14:08;;;;;;;5.00;1.52;;;20.60;77.60;;;;;;6245586;22;20008;-66
2022/07/13 02:16:33;;;;;;;5.13;1.60;;;20.50;77.60;;;;;;6244986;22;20035;-66
2022/07/13 02:18:59;;;;;;;3.55;1.33;;;20.60;77.30;;;;;;6244729;22;20011;-66
2022/07/13 02:21:25;;;;;;;3.72;1.48;;;20.60;77.10;;;;;;6244966;22;20053;-66
2022/07/13 02:23:51;;;;;;;2.90;1.33;;;20.50;77.30;;;;;;6244733;22;20026;-66
2022/07/13 02:26:17;;;;;;;4.72;1.30;;;20.50;77.60;;;;;;6243797;22;20012;-66
2022/07/13 02:28:42;;;;;;;2.97;1.45;;;20.40;78.00;;;;;;6243889;22;20813;-66
2022/07/13 02:31:08;;;;;;;4.80;1.23;;;20.40;77.80;;;;;;6243071;22;20067;-66
2022/07/13 02:33:33;;;;;;;1.80;1.10;;;20.40;77.40;;;;;;6243228;22;20004;-67
2022/07/13 02:35:59;;;;;;;2.92;1.20;;;20.30;78.20;;;;;;6241768;22;20008;-66
2022/07/13 02:38:25;;;;;;;2.00;1.08;;;20.30;78.00;;;;;;6241282;22;20016;-65
2022/07/13 02:40:51;;;;;;;3.83;1.10;;;20.30;77.70;;;;;;6242111;22;20005;-66
2022/07/13 02:43:16;;;;;;;3.75;1.10;;;20.20;78.10;;;;;;6241319;22;20308;-66
2022/07/13 02:45:42;;;;;;;2.85;1.48;;;20.20;77.90;;;;;;6243911;22;20083;-66
2022/07/13 02:48:08;;;;;;;1.38;1.27;;;20.10;78.30;;;;;;6241621;22;20099;-65
2022/07/13 02:50:33;;;;;;;4.82;1.30;;;20.10;78.70;;;;;;6242213;22;20000;-66
2022/07/13 02:52:59;;;;;;;2.42;1.40;;;20.10;78.70;;;;;;6243319;22;20000;-66
2022/07/13 02:55:25;;;;;;;2.45;1.50;;;20.10;78.40;;;;;;6242534;22;20043;-66
2022/07/13 02:57:50;;;;;;;2.90;1.45;;;20.10;78.90;;;;;;6242977;22;20000;-65
2022/07/13 03:00:16;;;;;;;4.63;1.60;;;20.10;79.30;;;;;;6241837;22;20040;-66
2022/07/13 03:02:42;;;;;;;2.13;1.17;;;20.20;79.00;;;;;;6242670;22;20004;-66
2022/07/13 03:05:08;;;;;;;3.15;1.50;;;20.10;78.80;;;;;;6242431;22;20027;-66
2022/07/13 03:07:34;;;;;;;9.73;1.58;;;20.10;78.70;;;;;;6242783;22;20000;-66
2022/07/13 03:10:00;;;;;;;3.50;1.50;;;20.00;78.70;;;;;;6241103;22;20071;-66
2022/07/13 03:12:26;;;;;;;3.90;1.50;;;20.00;78.90;;;;;;6242033;22;20007;-66
2022/07/13 03:14:52;;;;;;;3.03;1.30;;;19.90;79.60;;;;;;6242096;22;20004;-66
2022/07/13 03:17:17;;;;;;;3.10;1.50;;;19.90;79.70;;;;;;6242581;22;20004;-66
2022/07/13 03:19:43;;;;;;;3.88;1.40;;;19.90;79.20;;;;;;6242139;22;20007;-66
2022/07/13 03:22:09;;;;;;;3.78;1.30;;;19.90;79.50;;;;;;6242426;22;20333;-66
2022/07/13 03:24:35;;;;;;;4.35;1.60;;;19.90;79.40;;;;;;6243378;22;20083;-66
2022/07/13 03:27:01;;;;;;;4.45;1.40;;;19.90;79.70;;;;;;6243217;22;20061;-66
2022/07/13 03:29:27;;;;;;;4.78;1.63;;;19.90;79.20;;;;;;6243855;22;20370;-66
2022/07/13 03:31:53;;;;;;;4.30;1.50;;;19.90;79.30;;;;;;6244447;22;20342;-66
2022/07/13 03:34:19;;;;;;;3.88;1.70;;;19.90;79.00;;;;;;6244085;22;20066;-66
2022/07/13 03:36:44;;;;;;;2.63;1.70;;;19.80;79.10;;;;;;6244406;22;20000;-66
2022/07/13 03:39:10;;;;;;;6.63;1.52;;;19.80;79.40;;;;;;6244448;22;20000;-66
2022/07/13 03:41:36;;;;;;;7.75;1.70;;;19.80;79.10;;;;;;6244463;22;20008;-66
2022/07/13 03:44:02;;;;;;;3.15;1.55;;;19.90;78.80;;;;;;6244546;22;20442;-66
2022/07/13 03:46:27;;;;;;;4.78;1.60;;;19.90;78.80;;;;;;6244767;22;20022;-66
2022/07/13 03:48:53;;;;;;;5.55;1.63;;;19.90;78.60;;;;;;6244642;22;20047;-65
2022/07/13 03:51:19;;;;;;;3.55;1.60;;;19.90;79.20;;;;;;6246109;22;20000;-66
2022/07/13 03:53:45;;;;;;;7.60;1.48;;;19.80;79.50;;;;;;6247628;22;20028;-66
2022/07/13 03:56:11;;;;;;;3.28;1.55;;;19.90;79.20;;;;;;6246466;22;20431;-66
2022/07/13 03:58:36;;;;;;;2.05;1.30;;;19.90;79.10;;;;;;6246863;22;20118;-66
2022/07/13 04:01:02;;;;;;;4.05;1.77;;;19.80;79.00;;;;;;6246402;22;20010;-66
2022/07/13 04:03:28;;;;;;;4.85;1.70;;;19.80;79.00;;;;;;6247155;22;20010;-66
2022/07/13 04:05:53;;;;;;;3.95;1.40;;;19.80;78.80;;;;;;6246818;22;20102;-66
2022/07/13 04:08:19;;;;;;;6.28;1.67;;;19.80;78.60;;;;;;6246223;22;20031;-66
2022/07/13 04:10:45;;;;;;;4.65;1.60;;;19.80;78.70;;;;;;6246280;22;20378;-66
2022/07/13 04:13:10;;;;;;;3.05;1.40;;;19.90;78.50;;;;;;6246227;22;20007;-66
2022/07/13 04:15:36;;;;;;;1.85;1.23;;;19.90;78.00;;;;;;6246625;22;20035;-66
2022/07/13 04:18:02;;;;;;;3.25;1.42;;;20.00;77.80;;;;;;6246745;22;20579;-66
2022/07/13 04:20:27;;;;;;;2.00;1.20;;;20.00;78.20;;;;;;6246491;22;20015;-66
2022/07/13 04:22:55;;;;;;;6.60;1.60;;;20.00;79.00;;;;;;6246593;22;20000;-66
2022/07/13 04:25:21;;;;;;;4.60;1.40;;;20.00;78.40;;;;;;6246824;22;20377;-66
2022/07/13 04:27:46;;;;;;;4.55;1.67;;;20.00;78.20;;;;;;6246361;22;19996;-66
2022/07/13 04:30:12;;;;;;;6.90;1.50;;;20.10;77.90;;;;;;6246151;22;20063;-66
2022/07/13 04:32:38;;;;;;;7.72;1.73;;;20.00;78.00;;;;;;6246111;22;20012;-66
2022/07/13 04:35:04;;;;;;;8.38;1.63;;;20.00;77.80;;;;;;6246342;22;20079;-66
2022/07/13 04:37:30;;;;;;;12.32;1.80;;;20.00;77.70;;;;;;6246422;22;20429;-66
2022/07/13 04:39:56;;;;;;;5.20;1.90;;;20.00;78.00;;;;;;6245004;22;20004;-66
2022/07/13 04:42:21;;;;;;;6.22;1.40;;;20.00;78.20;;;;;;6246207;22;20000;-64
2022/07/13 04:44:47;;;;;;;4.18;1.63;;;19.90;78.10;;;;;;6246067;22;20012;-66
2022/07/13 04:47:12;;;;;;;6.03;1.65;;;19.90;77.70;;;;;;6246462;22;20465;-66
2022/07/13 04:49:38;;;;;;;5.07;1.58;;;19.80;77.80;;;;;;6246002;22;20415;-66
2022/07/13 04:52:05;;;;;;;3.97;1.60;;;19.80;78.50;;;;;;6246017;22;19996;-66
2022/07/13 04:54:31;;;;;;;3.58;1.63;;;19.90;79.20;;;;;;6245758;22;20027;-67
2022/07/13 04:56:57;;;;;;;5.80;1.70;;;19.90;79.50;;;;;;6247689;22;20004;-67
2022/07/13 04:59:23;;;;;;;4.25;1.50;;;19.90;79.50;;;;;;6245870;22;20016;-68
2022/07/13 05:01:48;;;;;;;2.55;1.25;;;19.90;79.80;;;;;;6245975;22;20355;-66
2022/07/13 05:04:14;;;;;;;5.43;1.65;;;19.90;80.20;;;;;;6245461;22;20012;-66
2022/07/13 05:06:40;;;;;;;5.97;1.73;;;20.00;80.00;;;;;;6245700;22;20008;-67
2022/07/13 05:09:06;;;;;;;2.78;1.80;;;19.90;79.80;;;;;;6245460;22;20000;-66
2022/07/13 05:11:32;;;;;;;8.88;1.83;;;20.00;79.90;;;;;;6245493;22;20008;-68
2022/07/13 05:13:58;;;;;;;5.43;1.77;;;20.00;79.90;;;;;;6245752;22;20115;-66
2022/07/13 05:16:23;;;;;;;5.97;1.60;;;20.00;80.30;;;;;;6245759;22;20074;-68
2022/07/13 05:18:49;;;;;;;6.13;1.80;;;20.00;80.60;;;;;;6246039;22;20013;-71
2022/07/13 05:21:15;;;;;;;4.30;2.00;;;20.10;80.90;;;;;;6246044;22;20071;-71
2022/07/13 05:23:40;;;;;;;5.50;2.08;;;20.10;80.90;;;;;;6245247;22;19996;-70
2022/07/13 05:26:06;;;;;;;7.38;1.73;;;20.20;80.90;;;;;;6245601;22;20008;-72
2022/07/13 05:28:32;;;;;;;8.65;1.60;;;20.20;81.00;;;;;;6245453;22;20087;-71
2022/07/13 05:30:58;;;;;;;4.50;1.50;;;20.30;81.20;;;;;;6246042;22;20000;-71
2022/07/13 05:33:25;;;;;;;4.30;1.60;;;20.40;80.50;;;;;;6245188;22;20004;-70
2022/07/13 05:35:50;;;;;;;3.35;1.73;;;20.40;80.80;;;;;;6245800;22;20075;-71
2022/07/13 05:38:16;;;;;;;12.02;1.98;;;20.50;79.80;;;;;;6245299;22;20053;-71
2022/07/13 05:40:42;;;;;;;5.38;1.75;;;20.60;79.40;;;;;;6245346;22;20049;-71
2022/07/13 05:43:07;;;;;;;4.95;1.33;;;20.60;78.90;;;;;;6245630;22;20004;-71
2022/07/13 05:45:33;;;;;;;2.60;1.30;;;20.70;78.60;;;;;;6245127;22;20015;-71
2022/07/13 05:47:59;;;;;;;4.80;1.73;;;20.80;78.50;;;;;;6245793;22;20071;-71
2022/07/13 05:50:25;;;;;;;6.63;1.63;;;20.80;78.80;;;;;;6245633;22;20004;-71
2022/07/13 05:52:51;;;;;;;13.70;1.70;;;20.90;78.80;;;;;;6245262;22;19996;-71
2022/07/13 05:55:17;;;;;;;3.67;1.40;;;20.90;78.30;;;;;;6245595;22;20008;-70
2022/07/13 05:57:44;;;;;;;1.88;1.20;;;21.00;77.10;;;;;;6245226;22;20327;-71
2022/07/13 06:00:14;;;;;;;4.78;1.52;;;21.00;76.20;;;;;;6245240;22;20020;-71
2022/07/13 06:02:41;;;;;;;3.80;1.48;;;21.10;75.50;;;;;;6245892;22;20054;-71
2022/07/13 06:05:08;;;;;;;5.57;1.58;;;21.10;75.30;;;;;;6246555;22;20038;-71
2022/07/13 06:07:34;;;;;;;7.85;1.75;;;21.20;75.40;;;;;;6246179;22;20067;-71
2022/07/13 06:10:01;;;;;;;5.03;1.90;;;21.20;75.90;;;;;;6245153;22;20000;-72
2022/07/13 06:12:27;;;;;;;5.57;1.48;;;21.30;75.80;;;;;;6244898;22;20004;-71
2022/07/13 06:14:53;;;;;;;9.70;1.52;;;21.40;75.80;;;;;;6245491;22;20012;-71
2022/07/13 06:17:22;;;;;;;4.25;1.58;;;21.40;75.80;;;;;;6246642;22;20154;-71
2022/07/13 06:19:49;;;;;;;4.65;1.38;;;21.50;76.00;;;;;;6245101;22;20004;-71
2022/07/13 06:22:15;;;;;;;6.82;1.30;;;21.60;75.30;;;;;;6246825;22;20015;-71
2022/07/13 06:24:41;;;;;;;9.38;2.08;;;21.50;74.80;;;;;;6246321;22;20067;-72
2022/07/13 06:27:07;;;;;;;2.47;1.45;;;21.60;74.60;;;;;;6246458;22;20008;-71
2022/07/13 06:29:34;;;;;;;2.92;1.38;;;21.70;74.40;;;;;;6245458;22;20370;-71
2022/07/13 06:31:59;;;;;;;5.68;1.75;;;21.70;74.20;;;;;;6245237;22;20062;-71
2022/07/13 06:34:25;;;;;;;8.10;1.60;;;21.70;73.80;;;;;;6246393;22;20004;-70
2022/07/13 06:36:51;;;;;;;2.85;1.30;;;21.80;73.70;;;;;;6246066;22;20022;-71
2022/07/13 06:39:17;;;;;;;3.90;1.30;;;21.90;73.60;;;;;;6246477;22;20008;-71
2022/07/13 06:41:42;;;;;;;7.07;1.52;;;21.90;73.50;;;;;;6245910;22;20007;-70
2022/07/13 06:44:08;;;;;;;6.57;1.80;;;22.00;73.40;;;;;;6245970;22;20015;-70
2022/07/13 06:46:34;;;;;;;22.77;2.08;;;22.10;73.10;;;;;;6246105;22;20423;-69
2022/07/13 06:49:00;;;;;;;9.07;1.30;;;22.10;72.70;;;;;;6246423;22;20012;-69
2022/07/13 06:51:25;;;;;;;2.25;1.10;;;22.20;72.00;;;;;;6246273;22;20443;-70
2022/07/13 06:53:51;;;;;;;2.38;1.10;;;22.20;71.10;;;;;;6246178;22;20011;-71
2022/07/13 06:56:17;;;;;;;6.53;1.02;;;22.30;70.70;;;;;;6246337;22;20000;-70
2022/07/13 06:58:43;;;;;;;6.95;1.42;;;22.30;70.40;;;;;;6245847;22;20012;-70
2022/07/13 07:01:09;;;;;;;3.47;1.30;;;22.40;70.10;;;;;;6246509;22;20008;-70
2022/07/13 07:03:35;;;;;;;4.63;1.00;;;22.50;69.70;;;;;;6245719;22;20008;-70
2022/07/13 07:06:00;;;;;;;2.55;1.20;;;22.50;69.10;;;;;;6246177;22;20053;-69
2022/07/13 07:08:26;;;;;;;3.30;1.48;;;22.60;68.40;;;;;;6245978;22;20331;-70
2022/07/13 07:10:52;;;;;;;1.98;1.10;;;22.60;68.10;;;;;;6245838;22;20007;-69
2022/07/13 07:13:18;;;;;;;2.60;1.15;;;22.60;68.00;;;;;;6246066;22;20277;-72
2022/07/13 07:15:43;;;;;;;3.35;1.10;;;22.70;67.90;;;;;;6246044;22;20023;-69
2022/07/13 07:18:09;;;;;;;1.15;1.00;;;22.80;68.00;;;;;;6245819;22;20031;-71
2022/07/13 07:20:35;;;;;;;4.05;1.40;;;22.80;67.50;;;;;;6245816;22;20004;-72
2022/07/13 07:23:00;;;;;;;3.60;1.10;;;22.90;65.20;;;;;;6246159;22;20015;-70
2022/07/13 07:25:26;;;;;;;2.75;1.20;;;22.90;65.40;;;;;;6245578;22;20312;-72
2022/07/13 07:27:52;;;;;;;1.60;0.90;;;23.00;64.40;;;;;;6246205;22;20415;-71
2022/07/13 07:30:18;;;;;;;7.80;2.17;;;23.00;64.70;;;;;;6245757;22;20374;-70
2022/07/13 07:32:44;;;;;;;1.83;0.95;;;23.10;64.80;;;;;;6245582;22;20442;-70
2022/07/13 07:35:10;;;;;;;4.38;1.30;;;23.20;64.70;;;;;;6245816;22;19996;-69
2022/07/13 07:37:38;;;;;;;3.30;1.30;;;23.20;64.30;;;;;;6245707;22;19996;-70
2022/07/13 07:40:05;;;;;;;4.65;1.30;;;23.30;64.10;;;;;;6246246;22;20062;-72
2022/07/13 07:42:31;;;;;;;5.78;1.27;;;23.30;64.10;;;;;;6245934;22;19997;-72
2022/07/13 07:44:57;;;;;;;1.83;1.08;;;23.40;63.90;;;;;;6245668;22;20019;-71
2022/07/13 07:47:25;;;;;;;2.22;1.15;;;23.40;63.60;;;;;;6245429;22;20004;-70
2022/07/13 07:49:52;;;;;;;5.40;1.30;;;23.50;63.40;;;;;;6245776;22;20004;-69
2022/07/13 07:52:19;;;;;;;3.03;1.38;;;23.50;63.40;;;;;;6245595;22;20414;-71
2022/07/13 07:54:46;;;;;;;2.50;1.45;;;23.60;63.20;;;;;;6245896;22;20496;-70
2022/07/13 07:57:12;;;;;;;4.55;1.60;;;23.70;63.10;;;;;;6246014;22;20004;-72
2022/07/13 07:59:38;;;;;;;5.75;1.05;;;23.70;63.10;;;;;;6245553;22;20012;-69
2022/07/13 08:02:05;;;;;;;1.92;1.15;;;23.80;63.00;;;;;;6245453;22;20545;-72
2022/07/13 08:04:31;;;;;;;2.30;1.45;;;23.90;61.80;;;;;;6245627;22;20083;-70
2022/07/13 08:06:57;;;;;;;3.15;1.27;;;23.90;61.40;;;;;;6245873;22;20011;-71
2022/07/13 08:09:22;;;;;;;3.97;1.27;;;24.00;61.20;;;;;;6245280;22;20007;-71
2022/07/13 08:11:48;;;;;;;1.90;1.30;;;24.00;61.40;;;;;;6246086;22;20111;-71
2022/07/13 08:14:14;;;;;;;3.72;1.17;;;24.10;61.30;;;;;;6246857;22;20030;-71
2022/07/13 08:16:40;;;;;;;4.03;1.17;;;24.20;61.20;;;;;;6245751;22;20001;-71
2022/07/13 08:19:05;;;;;;;2.88;1.30;;;24.20;60.70;;;;;;6245482;22;20007;-71
2022/07/13 08:21:31;;;;;;;15.43;2.65;;;24.30;60.60;;;;;;6245626;22;19997;-70
2022/07/13 08:23:57;;;;;;;15.90;2.00;;;24.40;60.90;;;;;;6245483;22;20058;-70
2022/07/13 08:26:30;;;;;;;7.60;1.30;;;24.50;61.00;;;;;;6245728;22;20407;-69
2022/07/13 08:28:57;;;;;;;3.50;1.40;;;24.50;61.00;;;;;;6245638;22;20026;-69
2022/07/13 08:31:24;;;;;;;3.13;1.30;;;24.60;61.40;;;;;;6245415;22;20073;-70
2022/07/13 08:39:22;;;;;;;4.28;1.30;;;24.80;61.90;;;;;;6247459;23;20015;-69
2022/07/13 08:41:48;;;;;;;6.22;1.60;;;24.90;60.20;;;;;;6247388;22;20000;-69
2022/07/13 08:44:15;;;;;;;3.75;1.40;;;24.90;59.80;;;;;;6247177;22;20004;-73
2022/07/13 08:46:41;;;;;;;3.60;1.33;;;25.00;59.70;;;;;;6247240;22;20009;-69
2022/07/13 08:49:08;;;;;;;2.85;1.48;;;25.10;59.10;;;;;;6247367;22;20004;-69
2022/07/13 08:51:34;;;;;;;5.40;1.30;;;25.10;58.60;;;;;;6247617;22;20000;-69
2022/07/13 08:54:04;;;;;;;2.97;1.10;;;25.20;58.90;;;;;;6247346;22;20300;-69
2022/07/13 08:56:30;;;;;;;3.38;1.33;;;25.30;59.00;;;;;;6247141;22;20431;-70
2022/07/13 08:58:56;;;;;;;4.53;1.63;;;25.30;58.80;;;;;;6247173;22;20008;-70
2022/07/13 09:01:22;;;;;;;4.40;1.02;;;25.30;59.00;;;;;;6247608;22;20004;-69
2022/07/13 09:03:48;;;;;;;2.28;1.30;;;25.40;58.70;;;;;;6247542;22;20007;-69
2022/07/13 09:06:39;;;;;;;3.83;1.27;;;25.40;58.70;;;;;;6246943;22;20016;-70
2022/07/13 09:09:23;;;;;;;13.93;2.22;;;25.60;59.10;;;;;;6247399;22;20390;-68
2022/07/13 09:11:49;;;;;;;3.20;1.90;;;25.60;59.20;;;;;;6247199;22;20087;-69
2022/07/13 09:14:26;;;;;;;4.22;1.92;;;25.60;58.80;;;;;;6247376;22;20031;-71
2022/07/13 09:16:52;;;;;;;8.00;5.05;;;25.70;58.80;;;;;;6247053;22;20000;-69
2022/07/13 09:19:23;;;;;;;6.55;2.20;;;25.80;59.30;;;;;;6247074;22;20040;-68
2022/07/13 09:21:49;;;;;;;9.80;5.45;;;25.90;58.60;;;;;;6247329;22;20004;-73
2022/07/13 09:24:15;;;;;;;3.83;2.10;;;26.00;58.40;;;;;;6247193;22;20449;-69
2022/07/13 09:26:47;;;;;;;6.07;1.25;;;26.00;58.60;;;;;;6247049;22;19996;-68
2022/07/13 09:29:15;;;;;;;3.25;1.45;;;26.10;57.70;;;;;;6246584;22;20063;-73
2022/07/13 09:31:55;;;;;;;3.05;1.40;;;26.10;56.50;;;;;;6247365;22;20046;-72
2022/07/13 09:34:40;;;;;;;3.28;1.20;;;26.20;56.90;;;;;;6247398;22;20012;-72
2022/07/13 09:37:09;;;;;;;2.13;0.90;;;26.30;57.00;;;;;;6246872;22;20000;-71
2022/07/13 09:39:35;;;;;;;3.22;1.38;;;26.30;56.40;;;;;;6247130;22;20004;-72
2022/07/13 09:42:00;;;;;;;3.15;0.98;;;26.40;55.70;;;;;;6246873;22;20327;-72
2022/07/13 09:47:12;;;;;;;5.07;1.40;;;26.60;54.10;;;;;;6247418;23;20058;-72
2022/07/13 09:49:43;;;;;;;2.55;1.63;;;26.60;53.10;;;;;;6246452;22;20070;-72
2022/07/13 09:52:11;;;;;;;2.58;1.00;;;26.70;53.50;;;;;;6246876;22;20058;-73
2022/07/13 09:54:39;;;;;;;2.20;1.13;;;26.70;52.90;;;;;;6247104;22;20324;-72
2022/07/13 09:57:08;;;;;;;3.80;1.38;;;26.90;52.60;;;;;;6247267;22;20004;-69
2022/07/13 09:59:39;;;;;;;2.33;1.20;;;26.90;53.10;;;;;;6246474;22;20435;-68
2022/07/13 10:02:05;;;;;;;7.00;1.27;;;26.90;53.80;;;;;;6246877;22;20304;-68
2022/07/13 10:04:38;;;;;;;2.42;1.00;;;27.00;54.40;;;;;;6246493;22;20017;-69
2022/07/13 10:07:04;;;;;;;4.95;1.30;;;27.10;53.80;;;;;;6246759;22;20506;-68
2022/07/13 10:09:31;;;;;;;2.03;1.00;;;27.10;53.20;;;;;;6246585;22;20008;-68
2022/07/13 10:12:00;;;;;;;3.15;1.00;;;27.10;52.90;;;;;;6246978;22;20027;-68
2022/07/13 10:14:35;;;;;;;4.05;1.02;;;27.10;53.50;;;;;;6246408;22;20000;-69
2022/07/13 10:17:05;;;;;;;3.90;1.00;;;27.20;53.60;;;;;;6246587;22;20069;-68
2022/07/13 10:19:32;;;;;;;1.27;1.00;;;27.30;52.50;;;;;;6246548;22;20004;-68
2022/07/13 10:22:09;;;;;;;2.25;1.02;;;27.30;52.40;;;;;;6246367;22;20028;-68
2022/07/13 10:24:36;;;;;;;2.15;1.00;;;27.40;51.70;;;;;;6246707;22;20011;-68
2022/07/13 10:27:22;;;;;;;6.40;1.20;;;27.40;51.80;;;;;;6246589;22;20004;-68
2022/07/13 10:29:50;;;;;;;1.70;1.13;;;27.40;50.90;;;;;;6246698;22;20012;-67
2022/07/13 10:32:22;;;;;;;2.33;1.10;;;27.50;51.40;;;;;;6247191;22;20004;-68
2022/07/13 10:35:04;;;;;;;2.35;1.30;;;27.50;50.90;;;;;;6246345;22;20023;-68
2022/07/13 10:37:56;;;;;;;5.50;1.10;;;27.50;50.60;;;;;;6246503;22;20004;-68
2022/07/13 10:40:23;;;;;;;1.52;0.98;;;27.50;52.00;;;;;;6246169;22;20000;-68
2022/07/13 10:42:57;;;;;;;2.35;1.20;;;27.60;50.80;;;;;;6246498;22;20003;-68
2022/07/13 10:45:34;;;;;;;2.13;1.08;;;27.60;51.10;;;;;;6246238;22;20012;-68
2022/07/13 10:48:19;;;;;;;1.73;1.08;;;27.70;50.70;;;;;;6246236;22;20011;-68
2022/07/13 10:50:47;;;;;;;5.45;1.23;;;27.80;51.00;;;;;;6245855;22;20000;-67
2022/07/13 10:53:16;;;;;;;4.20;1.23;;;27.80;50.90;;;;;;6246232;22;20000;-68
2022/07/13 10:55:49;;;;;;;7.10;1.42;;;27.90;50.90;;;;;;6246078;22;20003;-68
2022/07/13 10:58:33;;;;;;;6.35;1.38;;;28.00;51.20;;;;;;6246286;22;20074;-68
2022/07/13 11:01:07;;;;;;;4.05;1.20;;;28.00;50.60;;;;;;6246032;22;20394;-67
2022/07/13 11:03:43;;;;;;;2.45;1.35;;;28.00;51.60;;;;;;6246109;22;20028;-67
2022/07/13 11:06:20;;;;;;;16.48;1.60;;;28.10;49.90;;;;;;6245920;22;20510;-68
2022/07/13 11:08:46;;;;;;;3.42;1.45;;;28.20;48.60;;;;;;6246761;22;20361;-67
2022/07/13 11:11:17;;;;;;;3.42;1.40;;;28.20;49.70;;;;;;6245946;22;20028;-68
2022/07/13 11:13:45;;;;;;;2.63;1.50;;;28.30;49.70;;;;;;6246054;22;20327;-68
2022/07/13 11:16:13;;;;;;;5.28;1.40;;;28.30;49.40;;;;;;6246455;22;20011;-67
2022/07/13 11:18:41;;;;;;;5.78;1.40;;;28.30;49.90;;;;;;6246244;22;20008;-68
2022/07/13 11:21:13;;;;;;;8.18;1.58;;;28.30;50.40;;;;;;6246105;22;20458;-67
2022/07/13 11:26:47;;;;;;;7.05;2.08;;;28.40;49.60;;;;;;6245747;23;20350;-67
2022/07/13 11:29:43;;;;;;;2.97;1.20;;;28.40;49.80;;;;;;6246188;22;20450;-68
2022/07/13 11:32:10;;;;;;;2.42;1.38;;;28.50;49.80;;;;;;6245957;22;20078;-68
2022/07/13 11:34:36;;;;;;;3.40;1.40;;;28.50;49.70;;;;;;6246062;22;20008;-67
2022/07/13 11:37:02;;;;;;;4.82;1.50;;;28.50;49.80;;;;;;6246213;22;20004;-68
2022/07/13 11:39:33;;;;;;;3.92;2.05;;;28.60;49.40;;;;;;6246026;22;20011;-68
2022/07/13 11:42:01;;;;;;;4.10;1.42;;;28.60;48.80;;;;;;6245915;22;20076;-68
2022/07/13 11:44:29;;;;;;;4.10;1.70;;;28.60;49.10;;;;;;6245781;22;20443;-68
2022/07/13 11:46:57;;;;;;;6.00;1.58;;;28.60;48.80;;;;;;6245886;22;20009;-68
2022/07/13 11:49:24;;;;;;;5.03;1.55;;;28.60;49.10;;;;;;6245813;22;20003;-68
2022/07/13 11:51:50;;;;;;;8.93;1.42;;;28.70;49.00;;;;;;6245929;22;20009;-68
2022/07/13 11:54:22;;;;;;;4.35;1.38;;;28.70;49.40;;;;;;6245675;22;19997;-68
2022/07/13 11:56:49;;;;;;;;;;;28.70;48.50;;;;;;6246274;23;20007;-68
2022/07/13 11:59:33;;;;;;;6.18;1.50;;;28.80;48.80;;;;;;6245492;22;19915;-67
2022/07/13 12:01:59;;;;;;;5.40;1.30;;;28.80;48.70;;;;;;6245990;22;19999;-68
2022/07/13 12:04:28;;;;;;;3.63;1.30;;;28.80;48.80;;;;;;6245822;22;19997;-68
2022/07/13 12:07:19;;;;;;;5.00;1.33;;;28.90;48.80;;;;;;6245534;22;20008;-68
2022/07/13 12:09:52;;;;;;;11.20;1.90;;;28.90;48.80;;;;;;6245950;22;20000;-68
2022/07/13 12:12:19;;;;;;;4.38;1.80;;;28.90;47.60;;;;;;6247182;22;20071;-68
2022/07/13 12:14:45;;;;;;;4.47;1.35;;;29.00;47.80;;;;;;6247759;22;20000;-68
2022/07/13 12:17:11;;;;;;;3.42;1.30;;;29.00;48.30;;;;;;6247817;22;20075;-68
2022/07/13 12:19:37;;;;;;;8.55;1.38;;;29.10;47.70;;;;;;6247941;22;20031;-69
2022/07/13 12:22:05;;;;;;;3.72;1.40;;;29.10;48.10;;;;;;6247674;22;19997;-69
2022/07/13 12:24:31;;;;;;;2.17;1.20;;;29.00;47.90;;;;;;6247551;22;20008;-68
2022/07/13 12:26:57;;;;;;;7.28;1.35;;;29.10;48.10;;;;;;6247584;22;20126;-68
2022/07/13 12:29:32;;;;;;;4.30;1.17;;;29.10;47.60;;;;;;6247752;22;20000;-68
2022/07/13 12:31:58;;;;;;;6.88;1.40;;;29.20;47.20;;;;;;6247500;22;20001;-69
2022/07/13 12:34:24;;;;;;;2.78;1.33;;;29.20;46.80;;;;;;6247819;22;20008;-69
2022/07/13 12:36:51;;;;;;;2.08;1.20;;;29.20;47.40;;;;;;6247444;22;20008;-69
2022/07/13 12:39:40;;;;;;;8.77;1.55;;;29.30;46.60;;;;;;6247293;22;20419;-68
2022/07/13 12:42:08;;;;;;;4.95;1.13;;;29.30;46.60;;;;;;6247380;22;20066;-69
2022/07/13 12:44:35;;;;;;;4.35;1.30;;;29.30;47.00;;;;;;6247322;22;20016;-68
2022/07/13 12:47:02;;;;;;;4.70;1.20;;;29.40;46.20;;;;;;6247258;22;20479;-68
2022/07/13 12:49:38;;;;;;;6.22;1.25;;;29.40;45.50;;;;;;6247538;22;20014;-68
2022/07/13 12:52:05;;;;;;;3.47;1.15;;;29.40;45.40;;;;;;6247879;22;20366;-68
2022/07/13 12:54:53;;;;;;;6.55;1.20;;;29.40;45.50;;;;;;6247196;22;20011;-68
2022/07/13 12:57:24;;;;;;;7.35;1.77;;;29.40;45.00;;;;;;6247210;22;20079;-69
2022/07/13 13:00:14;;;;;;;1.85;1.05;;;29.50;45.80;;;;;;6242841;22;20066;-69
2022/07/13 13:02:40;;;;;;;5.50;1.10;;;29.60;44.70;;;;;;6244480;22;20004;-68